Sturgis, MI

6:45 AM EDT on March 26, 2017 (GMT -0400)
Kirsch Municipal

Weather History for KIRS - February, 2013

Change the Weather History Date:

Monday, February 11, 2013

  Actual Average (KHAI) Record (KHAI)
Temperature  
Mean Temperature 38 °F -  
Max Temperature 46 °F 33 °F 55 °F (2009)
Min Temperature 30 °F 16 °F -8 °F (2014)
Degree Days  
Heating Degree Days 27    
Moisture  
Dew Point 28 °F    
Average Humidity 75    
Maximum Humidity 100    
Minimum Humidity 69    
Precipitation  
Precipitation 0.00 in - - ()
Sea Level Pressure  
Sea Level Pressure 29.72 in    
Wind  
Wind Speed 19 mph (WSW)    
Max Wind Speed 32 mph    
Max Gust Speed 43 mph    
Visibility 10 miles    
Events Rain    
Averages and records for this station are not official NWS values.
T = Trace of Precipitation, MM = Missing Value Source: NWS Daily Summary

Daily Weather History Graph

Daily Weather History Graph

Search for Another Location

Airport or City:

Trip Planner

Search our weather history database for the weather conditions in past years. The results will help you decide how hot, cold, wet, or windy it might be!

Date:

Astronomy

Feb. 11, 2013 Rise Set
Actual Time 7:42 AM EST 6:10 PM EST
Civil Twilight 7:13 AM EST 6:39 PM EST
Nautical Twilight 6:40 AM EST 7:11 PM EST
Astronomical Twilight 6:08 AM EST 7:44 PM EST
Moon 8:04 AM EST (2/11) 8:08 PM EST (2/11)
Length of Visible Light 11h 25m
Length of Day
10h 27m
Waxing Crescent, 3% of the Moon is Illuminated
Feb 11
Waxing Crescent
Feb 17
First Quarter
Feb 25
Full
Mar 4
Last Quarter
Mar 11
New

Hourly Weather History & Observations

Time (EST) Temp. Windchill Dew Point Humidity Pressure Visibility Wind Dir Wind Speed Gust Speed Precip Events Conditions
12:15 AM 44.6 °F 38.1 °F 44.6 °F 100% 29.60 in 10.0 mi South 13.8 mph - N/A   Overcast
12:34 AM 46.4 °F 40.7 °F 44.6 °F 93% 29.60 in 10.0 mi South 12.7 mph 20.7 mph N/A   Overcast
12:55 AM 44.6 °F 38.4 °F 44.6 °F 100% 29.59 in 10.0 mi South 12.7 mph - N/A   Overcast
1:15 AM 44.6 °F 37.8 °F 42.8 °F 93% 29.59 in 10.0 mi South 15.0 mph - N/A   Overcast
1:35 AM 46.4 °F 39.8 °F 44.6 °F 93% 29.58 in 10.0 mi SSW 16.1 mph 19.6 mph N/A   Overcast
1:55 AM 46.4 °F 39.8 °F 42.8 °F 87% 29.57 in 10.0 mi SSW 16.1 mph 21.9 mph N/A   Overcast
2:14 AM 46.4 °F 40.1 °F 42.8 °F 87% 29.57 in 10.0 mi SSW 15.0 mph - N/A   Overcast
2:35 AM 44.6 °F 38.8 °F 42.8 °F 93% 29.56 in 10.0 mi SSW 11.5 mph - N/A   Mostly Cloudy
2:55 AM 46.4 °F 40.1 °F 42.8 °F 87% 29.55 in 10.0 mi SSW 15.0 mph - N/A   Scattered Clouds
3:14 AM 46.4 °F 37.9 °F 42.8 °F 87% 29.57 in 2.5 mi WSW 25.3 mph 32.2 mph N/A Rain Rain
3:35 AM 42.8 °F 36.2 °F 41.0 °F 93% 29.56 in 10.0 mi WSW 12.7 mph - N/A   Overcast
3:55 AM 42.8 °F 36.2 °F 39.2 °F 87% 29.56 in 10.0 mi WSW 12.7 mph 21.9 mph N/A   Scattered Clouds
4:14 AM 44.6 °F 36.4 °F 35.6 °F 71% 29.56 in 10.0 mi WSW 20.7 mph 26.5 mph N/A   Mostly Cloudy
4:35 AM 42.8 °F 34.5 °F 33.8 °F 70% 29.56 in 10.0 mi WSW 18.4 mph 25.3 mph N/A   Overcast
4:55 AM 42.8 °F 34.5 °F 33.8 °F 70% 29.57 in 10.0 mi SW 18.4 mph 23.0 mph N/A   Overcast
5:15 AM 41.0 °F 31.6 °F 33.8 °F 76% 29.58 in 10.0 mi SW 20.7 mph 28.8 mph N/A   Overcast
5:35 AM 41.0 °F 31.4 °F 32.0 °F 70% 29.59 in 10.0 mi WSW 21.9 mph 31.1 mph N/A   Overcast
5:54 AM 39.2 °F 29.6 °F 30.2 °F 70% 29.59 in 10.0 mi WSW 19.6 mph 29.9 mph N/A   Overcast
6:15 AM 39.2 °F 30.5 °F 30.2 °F 70% 29.59 in 10.0 mi West 16.1 mph 27.6 mph N/A   Overcast
6:54 AM 37.4 °F 26.1 °F 30.2 °F 75% 29.61 in 10.0 mi WSW 24.2 mph 32.2 mph N/A   Overcast
7:15 AM 37.4 °F 26.1 °F 28.4 °F 70% 29.62 in 10.0 mi WSW 24.2 mph 34.5 mph N/A   Overcast
7:35 AM 37.4 °F 26.9 °F 28.4 °F 70% 29.62 in 10.0 mi WSW 20.7 mph 28.8 mph N/A   Overcast
7:54 AM 35.6 °F 23.0 °F 26.6 °F 70% 29.65 in 10.0 mi West 27.6 mph 38.0 mph N/A   Overcast
8:15 AM 35.6 °F 25.9 °F 26.6 °F 70% 29.65 in 10.0 mi West 16.1 mph 27.6 mph N/A   Overcast
8:35 AM 33.8 °F 21.9 °F 26.6 °F 75% 29.66 in 10.0 mi WSW 21.9 mph 32.2 mph N/A   Overcast
8:55 AM 33.8 °F 21.0 °F 26.6 °F 75% 29.66 in 10.0 mi WSW 25.3 mph 36.8 mph N/A   Overcast
9:15 AM 33.8 °F 21.9 °F 24.8 °F 70% 29.67 in 10.0 mi WSW 21.9 mph 31.1 mph N/A   Overcast
9:34 AM 33.8 °F 21.0 °F 26.6 °F 75% 29.67 in 10.0 mi WSW 25.3 mph 34.5 mph N/A   Overcast
9:55 AM 33.8 °F 21.6 °F 26.6 °F 75% 29.68 in 10.0 mi WSW 23.0 mph 33.4 mph N/A   Overcast
10:15 AM 33.8 °F 21.0 °F 24.8 °F 70% 29.68 in 10.0 mi WSW 25.3 mph 34.5 mph N/A   Overcast
10:35 AM 33.8 °F 20.1 °F 24.8 °F 70% 29.68 in 10.0 mi WSW 29.9 mph 38.0 mph N/A   Overcast
10:55 AM 33.8 °F 21.0 °F 24.8 °F 70% 29.69 in 10.0 mi WSW 25.3 mph 31.1 mph N/A   Overcast
11:14 AM 33.8 °F 20.8 °F 24.8 °F 70% 29.69 in 10.0 mi WSW 26.5 mph 35.7 mph N/A   Overcast
11:35 AM 33.8 °F 21.6 °F 24.8 °F 70% 29.69 in 10.0 mi WSW 23.0 mph 34.5 mph N/A   Overcast
11:55 AM 33.8 °F 21.3 °F 24.8 °F 70% 29.69 in 10.0 mi WSW 24.2 mph 34.5 mph N/A   Overcast
12:15 PM 33.8 °F 20.8 °F 24.8 °F 70% 29.70 in 10.0 mi WSW 26.5 mph 36.8 mph N/A   Overcast
12:35 PM 33.8 °F 21.0 °F 24.8 °F 70% 29.70 in 10.0 mi WSW 25.3 mph 42.6 mph N/A   Overcast
12:54 PM 33.8 °F 19.6 °F 24.8 °F 70% 29.71 in 10.0 mi WSW 32.2 mph 38.0 mph N/A   Overcast
1:15 PM 33.8 °F 20.3 °F 24.8 °F 70% 29.71 in 10.0 mi WSW 28.8 mph 36.8 mph N/A   Overcast
1:35 PM 33.8 °F 21.6 °F 24.8 °F 70% 29.72 in 10.0 mi West 23.0 mph 36.8 mph N/A   Overcast
1:55 PM 33.8 °F 20.3 °F 24.8 °F 70% 29.72 in 10.0 mi WSW 28.8 mph 35.7 mph N/A   Overcast
2:15 PM 33.8 °F 21.9 °F 24.8 °F 70% 29.73 in 10.0 mi WSW 21.9 mph 34.5 mph N/A   Overcast
2:35 PM 33.8 °F 21.0 °F 24.8 °F 70% 29.73 in 10.0 mi WSW 25.3 mph 33.4 mph N/A   Overcast
2:55 PM 33.8 °F 20.8 °F 24.8 °F 70% 29.74 in 10.0 mi WSW 26.5 mph 36.8 mph N/A   Overcast
3:14 PM 33.8 °F 21.9 °F 24.8 °F 70% 29.75 in 10.0 mi WSW 21.9 mph 32.2 mph N/A   Overcast
3:35 PM 33.8 °F 21.9 °F 24.8 °F 70% 29.76 in 10.0 mi WSW 21.9 mph 31.1 mph N/A   Overcast
3:55 PM 33.8 °F 23.5 °F 24.8 °F 70% 29.77 in 10.0 mi West 16.1 mph 25.3 mph N/A   Overcast
4:14 PM 33.8 °F 22.5 °F 24.8 °F 70% 29.77 in 10.0 mi West 19.6 mph 27.6 mph N/A   Overcast
4:35 PM 33.8 °F 22.2 °F 24.8 °F 70% 29.78 in 10.0 mi West 20.7 mph 27.6 mph N/A   Overcast
4:55 PM 32.0 °F 19.8 °F 24.8 °F 75% 29.80 in 10.0 mi West 20.7 mph 32.2 mph N/A   Overcast
5:55 PM 32.0 °F 20.8 °F 24.8 °F 75% 29.82 in 10.0 mi West 17.3 mph 27.6 mph N/A   Overcast
6:14 PM 32.0 °F 19.8 °F 24.8 °F 75% 29.83 in 10.0 mi West 20.7 mph 26.5 mph N/A   Overcast
6:35 PM 32.0 °F 19.5 °F 23.0 °F 69% 29.84 in 10.0 mi West 21.9 mph 34.5 mph N/A   Overcast
6:55 PM 32.0 °F 18.4 °F 23.0 °F 69% 29.85 in 10.0 mi West 26.5 mph 33.4 mph N/A   Overcast
7:14 PM 32.0 °F 21.2 °F 23.0 °F 69% 29.85 in 10.0 mi West 16.1 mph 27.6 mph N/A   Overcast
7:35 PM 30.2 °F 17.1 °F 23.0 °F 75% 29.86 in 10.0 mi West 21.9 mph 32.2 mph N/A   Overcast
7:55 PM 30.2 °F 17.8 °F 23.0 °F 75% 29.87 in 10.0 mi West 19.6 mph 27.6 mph N/A   Overcast
8:14 PM 30.2 °F 18.5 °F 23.0 °F 75% 29.88 in 10.0 mi West 17.3 mph 24.2 mph N/A   Overcast
8:35 PM 30.2 °F 18.9 °F 23.0 °F 75% 29.88 in 10.0 mi West 16.1 mph 21.9 mph N/A   Overcast
8:55 PM 30.2 °F 18.5 °F 23.0 °F 75% 29.89 in 10.0 mi West 17.3 mph 26.5 mph N/A   Overcast
9:14 PM 30.2 °F 18.9 °F 21.2 °F 69% 29.90 in 10.0 mi WNW 16.1 mph 29.9 mph N/A   Overcast
9:35 PM 30.2 °F 18.5 °F 21.2 °F 69% 29.90 in 10.0 mi WNW 17.3 mph 23.0 mph N/A   Overcast
9:54 PM 30.2 °F 18.5 °F 21.2 °F 69% 29.90 in 10.0 mi West 17.3 mph 25.3 mph N/A   Overcast
10:15 PM 30.2 °F 18.9 °F 21.2 °F 69% 29.91 in 10.0 mi West 16.1 mph 24.2 mph N/A   Overcast
10:35 PM 30.2 °F 19.3 °F 21.2 °F 69% 29.91 in 10.0 mi West 15.0 mph 26.5 mph N/A   Overcast
10:54 PM 30.2 °F 18.5 °F 21.2 °F 69% 29.91 in 10.0 mi West 17.3 mph 24.2 mph N/A   Overcast
11:15 PM 30.2 °F 22.6 °F 21.2 °F 69% 29.92 in 10.0 mi West 8.1 mph - N/A   Overcast
11:35 PM 30.2 °F 19.8 °F 21.2 °F 69% 29.92 in 10.0 mi WNW 13.8 mph 27.6 mph N/A   Overcast
11:54 PM 30.2 °F 20.8 °F 21.2 °F 69% 29.93 in 10.0 mi West 11.5 mph 18.4 mph N/A   Overcast